Terminal Aerodrome Forecast
Issued by NWS Wilmington, NC

Home | Current Version | Previous Version | Text Only | Print | Product List | Glossary On
Versions: 1 2 3 4 5 6 7 8 9 10 11 12 13 14 15 16 17 18 19 20 21 22 23 24 25 26 27 28 29 30 31 32 33 34
000
FTUS42 KILM 231120
TAFILM
TAF
KILM 231120Z 2312/2412 24009KT P6SM SCT016
     FM231700 22013KT P6SM VCSH SCT025 OVC100
      TEMPO 2318/2321 24015G25KT 3SM SHRA BKN020
     FM232300 27006KT P6SM OVC045=

USA.gov is the U.S. government's official web portal to all federal, state and local government web resources and services.